Time;durP1;ratioP1;P1;durP2;ratioP2;P2;SDS_P1;SDS_P2;PMS_P1;PMS_P2;Temp;Humidity;BMP_temperature;BMP_pressure;BME280_temperature;BME280_humidity;BME280_pressure;Samples;Min_cycle;Max_cycle;Signal;HPM_P1;HPM_P2
2022/08/17 00:02:24;;;;;;;;;;;;;;;;;;5131045;27;46257;-81
2022/08/17 00:04:52;;;;;;;;;;;;;;;;;;5132616;27;47234;-81
2022/08/17 00:07:18;;;;;;;;;;;;;;;;;;5132256;27;45519;-81
2022/08/17 00:09:45;;;;;;;;;;;;;;;;;;5156378;27;45838;-80
2022/08/17 00:12:12;;;;;;;;;;;;;;;;;;5138359;27;43702;-80
2022/08/17 00:14:58;;;;;;;;;;;;;;;;;;5132789;27;19934;-81
2022/08/17 00:17:24;;;;;;;;;;;;;;;;;;5141857;27;46899;-81
2022/08/17 00:19:50;;;;;;;;;;;;;;;;;;5146898;27;44615;-81
2022/08/17 00:22:17;;;;;;;;;;;;;;;;;;5141178;27;45037;-80
2022/08/17 00:25:00;;;;;;;;;;;;;;;;;;5139220;27;45508;-80
2022/08/17 00:27:26;;;;;;;;;;;;;;;;;;5135691;27;43422;-80
2022/08/17 00:29:52;;;;;;;;;;;;;;;;;;5157106;27;45134;-80
2022/08/17 00:32:19;;;;;;;;;;;;;;;;;;5131406;27;43550;-81
2022/08/17 00:35:05;;;;;;;;;;;;;;;;;;5135232;27;19928;-81
2022/08/17 00:37:31;;;;;;;;;;;;;;;;;;5136965;27;47032;-81
2022/08/17 00:39:57;;;;;;;;;;;;;;;;;;5132510;27;42986;-81
2022/08/17 00:42:24;;;;;;;;;;;;;;;;;;5156224;27;46485;-80
2022/08/17 00:44:55;;;;;;;;;;;;;;;;;;5151926;27;47254;-81
2022/08/17 00:47:21;;;;;;;;;;;;;;;;;;5152846;27;41895;-81
2022/08/17 00:49:47;;;;;;;;;;;;;;;;;;5156103;27;46972;-81
2022/08/17 00:52:15;;;;;;;;;;;;;;;;;;5138763;27;44837;-82
2022/08/17 00:54:41;;;;;;;;;;;;;;;;;;5149130;27;44776;-81
2022/08/17 00:57:07;;;;;;;;;;;;;;;;;;5135513;27;46992;-81
2022/08/17 00:59:34;;;;;;;;;;;;;;;;;;5134947;27;44728;-81
2022/08/17 01:02:00;;;;;;;;;;;;;;;;;;5143418;27;47548;-81
2022/08/17 01:04:26;;;;;;;;;;;;;;;;;;5136945;27;46285;-81
2022/08/17 01:06:53;;;;;;;;;;;;;;;;;;5146901;27;42077;-81
2022/08/17 01:09:19;;;;;;;;;;;;;;;;;;5156812;27;45740;-81
2022/08/17 01:11:45;;;;;;;;;;;;;;;;;;5144513;27;46637;-81
2022/08/17 01:14:12;;;;;;;;;;;;;;;;;;5145236;27;47516;-81
2022/08/17 01:16:38;;;;;;;;;;;;;;;;;;5149602;27;46943;-82
2022/08/17 01:19:04;;;;;;;;;;;;;;;;;;5142487;27;42160;-82
2022/08/17 01:21:31;;;;;;;;;;;;;;;;;;5143044;27;46016;-82
2022/08/17 01:23:57;;;;;;;;;;;;;;;;;;5149597;27;46820;-81
2022/08/17 01:26:23;;;;;;;;;;;;;;;;;;5142613;27;44858;-80
2022/08/17 01:28:50;;;;;;;;;;;;;;;;;;5152065;27;48183;-81
2022/08/17 01:31:20;;;;;;;;;;;;;;;;;;5143748;27;48246;-82
2022/08/17 01:33:46;;;;;;;;;;;;;;;;;;5151798;27;47551;-82
2022/08/17 01:36:12;;;;;;;;;;;;;;;;;;5147929;27;46439;-85
2022/08/17 01:38:39;;;;;;;;;;;;;;;;;;5145277;27;42960;-85
2022/08/17 01:41:05;;;;;;;;;;;;;;;;;;5135771;27;44860;-84
2022/08/17 01:43:31;;;;;;;;;;;;;;;;;;5134477;27;45491;-84
2022/08/17 01:45:58;;;;;;;;;;;;;;;;;;5145000;27;42671;-84
2022/08/17 01:48:27;;;;;;;;;;;;;;;;;;5147653;27;44110;-83
2022/08/17 01:50:53;;;;;;;;;;;;;;;;;;5139498;27;44998;-84
2022/08/17 01:53:20;;;;;;;;;;;;;;;;;;5147032;27;43696;-85
2022/08/17 01:55:46;;;;;;;;;;;;;;;;;;5138045;27;47927;-83
2022/08/17 01:58:12;;;;;;;;;;;;;;;;;;5137388;27;45827;-84
2022/08/17 02:00:39;;;;;;;;;;;;;;;;;;5136958;27;46295;-84
2022/08/17 02:03:24;;;;;;;;;;;;;;;;;;5162927;27;46085;-85
2022/08/17 02:05:52;;;;;;;;;;;;;;;;;;5139180;27;43728;-86
2022/08/17 02:08:19;;;;;;;;;;;;;;;;;;5139214;27;44273;-84
2022/08/17 02:10:45;;;;;;;;;;;;;;;;;;5159012;27;46908;-84
2022/08/17 02:13:12;;;;;;;;;;;;;;;;;;5152711;27;43877;-82
2022/08/17 02:15:39;;;;;;;;;;;;;;;;;;5135379;27;47504;-84
2022/08/17 02:18:05;;;;;;;;;;;;;;;;;;5137637;27;44816;-84
2022/08/17 02:20:31;;;;;;;;;;;;;;;;;;5140674;27;44960;-84
2022/08/17 02:23:07;;;;;;;;;;;;;;;;;;5133697;27;46627;-83
2022/08/17 02:25:34;;;;;;;;;;;;;;;;;;5134450;27;43874;-82
2022/08/17 02:28:00;;;;;;;;;;;;;;;;;;5137506;27;47332;-84
2022/08/17 02:30:26;;;;;;;;;;;;;;;;;;5135278;27;46909;-84
2022/08/17 02:33:13;;;;;;;;;;;;;;;;;;5138079;27;19938;-83
2022/08/17 02:35:40;;;;;;;;;;;;;;;;;;5150120;27;46303;-84
2022/08/17 02:38:06;;;;;;;;;;;;;;;;;;5135745;27;46614;-84
2022/08/17 02:40:33;;;;;;;;;;;;;;;;;;5133285;27;46705;-83
2022/08/17 02:43:01;;;;;;;;;;;;;;;;;;5134347;27;48093;-83
2022/08/17 02:45:27;;;;;;;;;;;;;;;;;;5134122;27;42140;-83
2022/08/17 02:47:54;;;;;;;;;;;;;;;;;;5133619;27;46682;-83
2022/08/17 02:50:20;;;;;;;;;;;;;;;;;;5140234;27;46872;-83
2022/08/17 02:52:46;;;;;;;;;;;;;;;;;;5143360;27;42116;-85
2022/08/17 02:55:27;;;;;;;;;;;;;;;;;;5146826;27;47434;-84
2022/08/17 02:57:53;;;;;;;;;;;;;;;;;;5132504;27;48115;-84
2022/08/17 03:00:20;;;;;;;;;;;;;;;;;;5149217;27;43768;-84
2022/08/17 03:02:46;;;;;;;;;;;;;;;;;;5133440;27;45941;-84
2022/08/17 03:05:12;;;;;;;;;;;;;;;;;;5131674;27;42101;-85
2022/08/17 03:07:38;;;;;;;;;;;;;;;;;;5133226;27;44925;-84
2022/08/17 03:10:05;;;;;;;;;;;;;;;;;;5133433;27;46476;-83
2022/08/17 03:12:31;;;;;;;;;;;;;;;;;;5134404;27;45592;-84
2022/08/17 03:14:57;;;;;;;;;;;;;;;;;;5142000;27;44507;-85
2022/08/17 03:17:24;;;;;;;;;;;;;;;;;;5149871;27;46574;-85
2022/08/17 03:19:51;;;;;;;;;;;;;;;;;;5140290;27;42647;-85
2022/08/17 03:22:17;;;;;;;;;;;;;;;;;;5137338;27;46419;-88
2022/08/17 03:25:01;;;;;;;;;;;;;;;;;;5142435;27;41781;-85
2022/08/17 03:27:27;;;;;;;;;;;;;;;;;;5135447;27;45899;-84
2022/08/17 03:29:54;;;;;;;;;;;;;;;;;;5144960;27;46862;-84
2022/08/17 03:32:20;;;;;;;;;;;;;;;;;;5139131;27;44054;-84
2022/08/17 03:34:46;;;;;;;;;;;;;;;;;;5149891;27;46505;-84
2022/08/17 03:37:13;;;;;;;;;;;;;;;;;;5148065;27;46710;-85
2022/08/17 03:39:39;;;;;;;;;;;;;;;;;;5142962;27;42263;-84
2022/08/17 03:42:05;;;;;;;;;;;;;;;;;;5137402;27;46852;-85
2022/08/17 03:44:32;;;;;;;;;;;;;;;;;;5139102;27;44853;-85
2022/08/17 03:58:01;;;;;;;;;;;;;;;;;;5132578;27;46399;-84
2022/08/17 04:00:32;;;;;;;;;;;;;;;;;;5142613;27;41618;-84
2022/08/17 04:02:58;;;;;;;;;;;;;;;;;;5135018;27;48106;-85
2022/08/17 04:05:25;;;;;;;;;;;;;;;;;;5131880;27;46916;-85
2022/08/17 04:07:51;;;;;;;;;;;;;;;;;;5130261;27;45601;-85
2022/08/17 04:10:17;;;;;;;;;;;;;;;;;;5139015;27;44828;-85
2022/08/17 04:12:43;;;;;;;;;;;;;;;;;;5133092;27;43781;-85
2022/08/17 04:15:11;;;;;;;;;;;;;;;;;;5138340;27;46244;-83
2022/08/17 04:17:37;;;;;;;;;;;;;;;;;;5142955;27;45234;-85
2022/08/17 04:20:03;;;;;;;;;;;;;;;;;;5155325;27;42875;-85
2022/08/17 04:22:30;;;;;;;;;;;;;;;;;;5164293;27;46240;-84
2022/08/17 04:25:01;;;;;;;;;;;;;;;;;;5162691;27;47293;-84
2022/08/17 04:27:28;;;;;;;;;;;;;;;;;;5147404;27;44659;-84
2022/08/17 04:29:54;;;;;;;;;;;;;;;;;;5153340;27;46624;-84
2022/08/17 04:32:21;;;;;;;;;;;;;;;;;;5137600;27;43744;-84
2022/08/17 04:34:51;;;;;;;;;;;;;;;;;;5139319;27;46624;-85
2022/08/17 04:37:18;;;;;;;;;;;;;;;;;;5144982;27;45308;-85
2022/08/17 04:42:05;;;;;;;;;;;;;;;;;;5135801;27;43099;-84
2022/08/17 04:42:31;;;;;;;;;;;;;;;;;;5147050;27;45215;-84
2022/08/17 04:44:57;;;;;;;;;;;;;;;;;;5137374;27;44837;-84
2022/08/17 04:47:23;;;;;;;;;;;;;;;;;;5139859;27;41882;-83
2022/08/17 04:49:49;;;;;;;;;;;;;;;;;;5139985;27;44469;-84
2022/08/17 04:52:16;;;;;;;;;;;;;;;;;;5143512;27;44918;-84
2022/08/17 04:54:55;;;;;;;;;;;;;;;;;;5141786;27;47661;-83
2022/08/17 04:57:21;;;;;;;;;;;;;;;;;;5156274;27;45722;-84
2022/08/17 04:59:47;;;;;;;;;;;;;;;;;;5149288;27;43784;-84
2022/08/17 05:02:13;;;;;;;;;;;;;;;;;;5142215;27;44947;-85
2022/08/17 05:04:40;;;;;;;;;;;;;;;;;;5143538;27;46636;-85
2022/08/17 05:07:06;;;;;;;;;;;;;;;;;;5149080;27;43652;-84
2022/08/17 05:09:33;;;;;;;;;;;;;;;;;;5140099;27;47395;-84
2022/08/17 05:11:59;;;;;;;;;;;;;;;;;;5154589;27;46510;-83
2022/08/17 05:14:25;;;;;;;;;;;;;;;;;;5159255;27;46504;-84
2022/08/17 05:16:58;;;;;;;;;;;;;;;;;;5139127;27;45548;-85
2022/08/17 05:19:24;;;;;;;;;;;;;;;;;;5144054;27;41857;-85
2022/08/17 05:21:51;;;;;;;;;;;;;;;;;;5144665;27;47289;-84
2022/08/17 05:24:17;;;;;;;;;;;;;;;;;;5144627;27;45867;-83
2022/08/17 05:27:03;;;;;;;;;;;;;;;;;;5140581;27;19978;-82
2022/08/17 05:29:31;;;;;;;;;;;;;;;;;;5137591;27;46645;-82
2022/08/17 05:32:00;;;;;;;;;;;;;;;;;;5135932;27;48074;-85
2022/08/17 05:34:27;;;;;;;;;;;;;;;;;;5139380;27;42950;-85
2022/08/17 05:36:53;;;;;;;;;;;;;;;;;;5142756;27;48081;-85
2022/08/17 05:39:19;;;;;;;;;;;;;;;;;;5137036;27;42721;-84
2022/08/17 05:41:46;;;;;;;;;;;;;;;;;;5137329;27;44263;-84
2022/08/17 05:44:12;;;;;;;;;;;;;;;;;;5144250;27;48094;-84
2022/08/17 05:46:39;;;;;;;;;;;;;;;;;;5156867;27;42610;-84
2022/08/17 05:49:06;;;;;;;;;;;;;;;;;;5135787;27;46880;-83
2022/08/17 05:51:33;;;;;;;;;;;;;;;;;;5132261;27;46856;-82
2022/08/17 05:54:01;;;;;;;;;;;;;;;;;;5133625;27;43637;-83
2022/08/17 05:56:27;;;;;;;;;;;;;;;;;;5135496;27;48276;-82
2022/08/17 05:58:55;;;;;;;;;;;;;;;;;;5133998;27;44513;-83
2022/08/17 06:01:21;;;;;;;;;;;;;;;;;;5133474;27;46281;-82
2022/08/17 06:03:49;;;;;;;;;;;;;;;;;;5134716;27;48035;-81
2022/08/17 06:06:15;;;;;;;;;;;;;;;;;;5135743;27;44545;-83
2022/08/17 06:08:44;;;;;;;;;;;;;;;;;;5149684;27;45235;-83
2022/08/17 06:11:17;;;;;;;;;;;;;;;;;;5150786;27;48791;-82
2022/08/17 06:13:43;;;;;;;;;;;;;;;;;;5147382;27;42930;-83
2022/08/17 06:16:10;;;;;;;;;;;;;;;;;;5143611;27;44428;-82
2022/08/17 06:18:56;;;;;;;;;;;;;;;;;;5146129;27;19938;-82
2022/08/17 06:21:22;;;;;;;;;;;;;;;;;;5147902;27;46340;-81
2022/08/17 06:23:52;;;;;;;;;;;;;;;;;;5150633;27;45429;-80
2022/08/17 06:26:19;;;;;;;;;;;;;;;;;;5133107;27;43478;-81
2022/08/17 06:28:45;;;;;;;;;;;;;;;;;;5146230;27;47439;-81
2022/08/17 06:31:11;;;;;;;;;;;;;;;;;;5154046;27;46409;-82
2022/08/17 06:33:38;;;;;;;;;;;;;;;;;;5133963;27;41531;-82
2022/08/17 06:36:04;;;;;;;;;;;;;;;;;;5154844;27;46151;-82
2022/08/17 06:38:39;;;;;;;;;;;;;;;;;;5153923;27;47005;-82
2022/08/17 06:41:07;;;;;;;;;;;;;;;;;;5154922;27;46482;-81
2022/08/17 06:43:33;;;;;;;;;;;;;;;;;;5139784;27;46628;-82
2022/08/17 06:46:00;;;;;;;;;;;;;;;;;;5137193;27;44729;-82
2022/08/17 06:48:26;;;;;;;;;;;;;;;;;;5143827;27;45861;-82
2022/08/17 06:50:53;;;;;;;;;;;;;;;;;;5147499;27;46965;-82
2022/08/17 06:53:19;;;;;;;;;;;;;;;;;;5133742;27;42225;-82
2022/08/17 06:55:56;;;;;;;;;;;;;;;;;;5136354;27;45269;-81
2022/08/17 06:58:23;;;;;;;;;;;;;;;;;;5134971;27;48513;-82
2022/08/17 07:00:49;;;;;;;;;;;;;;;;;;5146806;27;43763;-83
2022/08/17 07:03:19;;;;;;;;;;;;;;;;;;5140052;27;45217;-82
2022/08/17 07:05:45;;;;;;;;;;;;;;;;;;5164766;27;42387;-82
2022/08/17 07:08:12;;;;;;;;;;;;;;;;;;5142310;27;44268;-82
2022/08/17 07:10:38;;;;;;;;;;;;;;;;;;5148268;27;49819;-82
2022/08/17 07:13:04;;;;;;;;;;;;;;;;;;5148440;27;42075;-83
2022/08/17 07:15:32;;;;;;;;;;;;;;;;;;5147089;27;46102;-82
2022/08/17 07:17:59;;;;;;;;;;;;;;;;;;5141638;27;45930;-84
2022/08/17 07:20:25;;;;;;;;;;;;;;;;;;5142091;27;45847;-83
2022/08/17 07:22:52;;;;;;;;;;;;;;;;;;5146834;27;47137;-81
2022/08/17 07:25:25;;;;;;;;;;;;;;;;;;5143456;27;44065;-81
2022/08/17 07:27:51;;;;;;;;;;;;;;;;;;5145970;27;46551;-82
2022/08/17 07:30:18;;;;;;;;;;;;;;;;;;5157178;27;44121;-82
2022/08/17 07:32:44;;;;;;;;;;;;;;;;;;5135407;27;41480;-82
2022/08/17 07:35:10;;;;;;;;;;;;;;;;;;5151671;27;45288;-82
2022/08/17 07:37:37;;;;;;;;;;;;;;;;;;5146979;27;46222;-82
2022/08/17 07:40:05;;;;;;;;;;;;;;;;;;5145086;27;42862;-82
2022/08/17 07:42:40;;;;;;;;;;;;;;;;;;5142704;27;45003;-82
2022/08/17 07:48:17;;;;;;;;;;;;;;;;;;5152183;27;35625;-81
2022/08/17 07:50:41;;;;;;;;;;;;;;;;;;5153574;27;48261;-82
2022/08/17 07:53:07;;;;;;;;;;;;;;;;;;5161541;27;43601;-80
2022/08/17 07:55:39;;;;;;;;;;;;;;;;;;5150693;27;46447;-81
2022/08/17 07:58:05;;;;;;;;;;;;;;;;;;5142978;27;45315;-81
2022/08/17 08:00:32;;;;;;;;;;;;;;;;;;5150778;27;42178;-81
2022/08/17 08:02:58;;;;;;;;;;;;;;;;;;5140144;27;45168;-82
2022/08/17 08:05:25;;;;;;;;;;;;;;;;;;5136541;27;46820;-81
2022/08/17 08:08:13;;;;;;;;;;;;;;;;;;5145864;27;19935;-82
2022/08/17 08:10:41;;;;;;;;;;;;;;;;;;5140370;27;45146;-81
2022/08/17 08:13:10;;;;;;;;;;;;;;;;;;5139410;27;43391;-81
2022/08/17 08:15:38;;;;;;;;;;;;;;;;;;5153224;27;46537;-81
2022/08/17 08:18:04;;;;;;;;;;;;;;;;;;5153778;27;48048;-82
2022/08/17 08:20:30;;;;;;;;;;;;;;;;;;5153883;27;41588;-82
2022/08/17 08:23:17;;;;;;;;;;;;;;;;;;5141257;27;20691;-81
2022/08/17 08:25:44;;;;;;;;;;;;;;;;;;5143851;27;45666;-81
2022/08/17 08:28:10;;;;;;;;;;;;;;;;;;5151974;27;43563;-81
2022/08/17 08:30:36;;;;;;;;;;;;;;;;;;5152037;27;45876;-82
2022/08/17 08:33:03;;;;;;;;;;;;;;;;;;5145906;27;44816;-82
2022/08/17 08:35:29;;;;;;;;;;;;;;;;;;5141779;27;46407;-81
2022/08/17 08:37:56;;;;;;;;;;;;;;;;;;5140459;27;45207;-82
2022/08/17 08:40:22;;;;;;;;;;;;;;;;;;5153216;27;43434;-82
2022/08/17 08:42:48;;;;;;;;;;;;;;;;;;5147997;27;46255;-81
2022/08/17 08:45:14;;;;;;;;;;;;;;;;;;5133739;27;45861;-82
2022/08/17 08:47:41;;;;;;;;;;;;;;;;;;5136846;27;43576;-83
2022/08/17 08:50:07;;;;;;;;;;;;;;;;;;5134689;27;46295;-83
2022/08/17 08:52:34;;;;;;;;;;;;;;;;;;5135882;27;41991;-83
2022/08/17 08:55:00;;;;;;;;;;;;;;;;;;5148868;27;44427;-84
2022/08/17 08:57:27;;;;;;;;;;;;;;;;;;5144986;27;48391;-83
2022/08/17 08:59:59;;;;;;;;;;;;;;;;;;5141096;27;45035;-83
2022/08/17 09:02:25;;;;;;;;;;;;;;;;;;5145988;27;44859;-84
2022/08/17 09:04:51;;;;;;;;;;;;;;;;;;5143554;27;48116;-83
2022/08/17 09:07:37;;;;;;;;;;;;;;;;;;5147064;27;19928;-83
2022/08/17 09:10:04;;;;;;;;;;;;;;;;;;5154293;27;45760;-83
2022/08/17 09:12:30;;;;;;;;;;;;;;;;;;5137309;27;46472;-83
2022/08/17 09:14:56;;;;;;;;;;;;;;;;;;5134740;27;44305;-83
2022/08/17 09:17:22;;;;;;;;;;;;;;;;;;5135917;27;48092;-83
2022/08/17 09:19:49;;;;;;;;;;;;;;;;;;5151842;27;43447;-82
2022/08/17 09:22:16;;;;;;;;;;;;;;;;;;5151850;27;45600;-82
2022/08/17 09:24:45;;;;;;;;;;;;;;;;;;5134676;27;46661;-81
2022/08/17 09:27:12;;;;;;;;;;;;;;;;;;5148699;27;43458;-82
2022/08/17 09:29:38;;;;;;;;;;;;;;;;;;5154740;27;46316;-82
2022/08/17 09:32:04;;;;;;;;;;;;;;;;;;5147689;27;46885;-84
2022/08/17 09:34:31;;;;;;;;;;;;;;;;;;5132388;27;45117;-80
2022/08/17 09:36:58;;;;;;;;;;;;;;;;;;5140757;27;46422;-80
2022/08/17 09:39:24;;;;;;;;;;;;;;;;;;5150441;27;44704;-81
2022/08/17 09:41:50;;;;;;;;;;;;;;;;;;5142896;27;46738;-82
2022/08/17 09:44:17;;;;;;;;;;;;;;;;;;5135533;27;47128;-81
2022/08/17 09:46:48;;;;;;;;;;;;;;;;;;5135314;27;44067;-82
2022/08/17 09:49:15;;;;;;;;;;;;;;;;;;5142161;27;46389;-81
2022/08/17 09:51:41;;;;;;;;;;;;;;;;;;5154566;27;45003;-81
2022/08/17 09:54:07;;;;;;;;;;;;;;;;;;5145791;27;43672;-81
2022/08/17 09:56:53;;;;;;;;;;;;;;;;;;5135722;27;19926;-80
2022/08/17 09:59:40;;;;;;;;;;;;;;;;;;5154199;27;19927;-80
2022/08/17 10:02:08;;;;;;;;;;;;;;;;;;5153670;27;43851;-81
2022/08/17 10:04:34;;;;;;;;;;;;;;;;;;5132552;27;46264;-81
2022/08/17 10:07:00;;;;;;;;;;;;;;;;;;5148913;27;43888;-80
2022/08/17 10:09:26;;;;;;;;;;;;;;;;;;5150368;27;46455;-80
2022/08/17 10:14:55;;;;;;;;;;;;;;;;;;5129568;27;42855;-80
2022/08/17 10:17:21;;;;;;;;;;;;;;;;;;5131636;27;46577;-81
2022/08/17 10:19:47;;;;;;;;;;;;;;;;;;5131210;27;44844;-81
2022/08/17 10:27:50;;;;;;;;;;;;;;;;;;5151586;27;43711;-81
2022/08/17 10:30:17;;;;;;;;;;;;;;;;;;5132035;27;45140;-79
2022/08/17 10:32:43;;;;;;;;;;;;;;;;;;5158115;27;47440;-79
2022/08/17 10:35:24;;;;;;;;;;;;;;;;;;5132208;27;19934;-82
2022/08/17 10:37:50;;;;;;;;;;;;;;;;;;5133957;27;45869;-82
2022/08/17 10:40:17;;;;;;;;;;;;;;;;;;5139418;27;48754;-81
2022/08/17 10:42:44;;;;;;;;;;;;;;;;;;5130971;27;45945;-82
2022/08/17 10:45:12;;;;;;;;;;;;;;;;;;5137413;27;47481;-81
2022/08/17 10:47:40;;;;;;;;;;;;;;;;;;5148035;27;43728;-81
2022/08/17 10:50:20;;;;;;;;;;;;;;;;;;5131835;27;46259;-81
2022/08/17 10:52:47;;;;;;;;;;;;;;;;;;5138380;27;46962;-81
2022/08/17 10:55:13;;;;;;;;;;;;;;;;;;5135031;27;42093;-80
2022/08/17 10:57:40;;;;;;;;;;;;;;;;;;5134924;27;45282;-81
2022/08/17 11:00:11;;;;;;;;;;;;;;;;;;5132820;27;46957;-81
2022/08/17 11:02:37;;;;;;;;;;;;;;;;;;5155913;27;44846;-81
2022/08/17 11:05:05;;;;;;;;;;;;;;;;;;5144771;27;48041;-82
2022/08/17 11:07:33;;;;;;;;;;;;;;;;;;5142857;27;44479;-82
2022/08/17 11:09:59;;;;;;;;;;;;;;;;;;5135910;27;45189;-82
2022/08/17 11:12:26;;;;;;;;;;;;;;;;;;5137266;27;46733;-82
2022/08/17 11:14:53;;;;;;;;;;;;;;;;;;5139276;27;43958;-82
2022/08/17 11:17:19;;;;;;;;;;;;;;;;;;5142576;27;46086;-82
2022/08/17 11:19:45;;;;;;;;;;;;;;;;;;5136011;27;47126;-82
2022/08/17 11:22:12;;;;;;;;;;;;;;;;;;5136881;27;42130;-82
2022/08/17 11:24:38;;;;;;;;;;;;;;;;;;5137244;27;46777;-82
2022/08/17 11:27:05;;;;;;;;;;;;;;;;;;5142199;27;43680;-81
2022/08/17 11:29:31;;;;;;;;;;;;;;;;;;5145944;27;46769;-81
2022/08/17 11:31:57;;;;;;;;;;;;;;;;;;5136853;27;45215;-81
2022/08/17 11:34:25;;;;;;;;;;;;;;;;;;5132819;27;43601;-81
2022/08/17 11:36:51;;;;;;;;;;;;;;;;;;5136632;27;44656;-81
2022/08/17 11:39:17;;;;;;;;;;;;;;;;;;5139235;27;45918;-81
2022/08/17 11:41:43;;;;;;;;;;;;;;;;;;5133731;27;44908;-81
2022/08/17 11:44:10;;;;;;;;;;;;;;;;;;5150049;27;44917;-79
2022/08/17 11:52:07;;;;;;;;;;;;;;;;;;5132452;27;46989;-79
2022/08/17 11:54:34;;;;;;;;;;;;;;;;;;5139556;27;44706;-80
2022/08/17 11:57:01;;;;;;;;;;;;;;;;;;5134582;27;47478;-80
2022/08/17 11:59:28;;;;;;;;;;;;;;;;;;5135021;27;48285;-80
2022/08/17 12:01:55;;;;;;;;;;;;;;;;;;5137067;27;43528;-80
2022/08/17 12:04:21;;;;;;;;;;;;;;;;;;5147230;27;46718;-81
2022/08/17 12:06:48;;;;;;;;;;;;;;;;;;5138979;27;46625;-81
2022/08/17 12:09:14;;;;;;;;;;;;;;;;;;5135853;27;46617;-82
2022/08/17 12:11:41;;;;;;;;;;;;;;;;;;5142960;27;45842;-81
2022/08/17 12:14:27;;;;;;;;;;;;;;;;;;5145552;27;43578;-82
2022/08/17 12:17:13;;;;;;;;;;;;;;;;;;5142410;27;19934;-82
2022/08/17 12:19:39;;;;;;;;;;;;;;;;;;5137663;27;46836;-81
2022/08/17 12:22:05;;;;;;;;;;;;;;;;;;5138888;27;43689;-82
2022/08/17 12:24:32;;;;;;;;;;;;;;;;;;5151451;27;44328;-82
2022/08/17 12:26:58;;;;;;;;;;;;;;;;;;5152740;27;46987;-82
2022/08/17 12:29:24;;;;;;;;;;;;;;;;;;5142265;27;44871;-82
2022/08/17 12:32:01;;;;;;;;;;;;;;;;;;5146587;27;45856;-81
2022/08/17 12:34:27;;;;;;;;;;;;;;;;;;5139703;27;43632;-81
2022/08/17 12:36:57;;;;;;;;;;;;;;;;;;5147917;27;47414;-81
2022/08/17 12:39:24;;;;;;;;;;;;;;;;;;5159045;27;45040;-81
2022/08/17 12:41:50;;;;;;;;;;;;;;;;;;5156984;27;43835;-82
2022/08/17 12:44:16;;;;;;;;;;;;;;;;;;5148309;27;47527;-82
2022/08/17 12:46:43;;;;;;;;;;;;;;;;;;5145375;27;45199;-80
2022/08/17 12:49:09;;;;;;;;;;;;;;;;;;5137906;27;45214;-80
2022/08/17 12:51:36;;;;;;;;;;;;;;;;;;5137081;27;46388;-80
2022/08/17 12:54:02;;;;;;;;;;;;;;;;;;5162512;27;43655;-80
2022/08/17 12:56:28;;;;;;;;;;;;;;;;;;5139635;27;46269;-78
2022/08/17 12:58:55;;;;;;;;;;;;;;;;;;5133961;27;47026;-79
2022/08/17 13:01:23;;;;;;;;;;;;;;;;;;5134542;27;43739;-78
2022/08/17 13:03:50;;;;;;;;;;;;;;;;;;5134995;27;46004;-79
2022/08/17 13:06:16;;;;;;;;;;;;;;;;;;5146737;27;45555;-79
2022/08/17 13:08:42;;;;;;;;;;;;;;;;;;5132207;27;45578;-79
2022/08/17 13:11:09;;;;;;;;;;;;;;;;;;5132320;27;45578;-78
2022/08/17 13:13:35;;;;;;;;;;;;;;;;;;5147096;27;46825;-78
2022/08/17 13:16:01;;;;;;;;;;;;;;;;;;5143402;27;46524;-78
2022/08/17 13:18:27;;;;;;;;;;;;;;;;;;5132752;27;48005;-79
2022/08/17 13:20:54;;;;;;;;;;;;;;;;;;5133991;27;42928;-79
2022/08/17 13:23:20;;;;;;;;;;;;;;;;;;5133951;27;44422;-79
2022/08/17 13:25:46;;;;;;;;;;;;;;;;;;5149423;27;46391;-79
2022/08/17 13:28:12;;;;;;;;;;;;;;;;;;5150979;27;42212;-79
2022/08/17 13:30:39;;;;;;;;;;;;;;;;;;5145249;27;46408;-80
2022/08/17 13:33:05;;;;;;;;;;;;;;;;;;5139092;27;46982;-79
2022/08/17 13:35:31;;;;;;;;;;;;;;;;;;5148492;27;43852;-78
2022/08/17 13:38:05;;;;;;;;;;;;;;;;;;5144935;27;45008;-78
2022/08/17 13:40:31;;;;;;;;;;;;;;;;;;5148691;27;43823;-79
2022/08/17 13:42:57;;;;;;;;;;;;;;;;;;5147744;27;46307;-79
2022/08/17 13:45:24;;;;;;;;;;;;;;;;;;5148098;27;45074;-79
2022/08/17 13:48:00;;;;;;;;;;;;;;;;;;5150518;27;43630;-81
2022/08/17 13:50:27;;;;;;;;;;;;;;;;;;5150128;27;43823;-81
2022/08/17 13:52:57;;;;;;;;;;;;;;;;;;5139432;27;45162;-81
2022/08/17 13:55:23;;;;;;;;;;;;;;;;;;5149581;27;41983;-81
2022/08/17 13:57:50;;;;;;;;;;;;;;;;;;5135021;27;46204;-81
2022/08/17 14:00:29;;;;;;;;;;;;;;;;;;5134291;27;41879;-81
2022/08/17 14:02:55;;;;;;;;;;;;;;;;;;5134245;27;45190;-81
2022/08/17 14:05:22;;;;;;;;;;;;;;;;;;5135259;27;47975;-80
2022/08/17 14:07:48;;;;;;;;;;;;;;;;;;5133799;27;42004;-81
2022/08/17 14:10:16;;;;;;;;;;;;;;;;;;5134130;27;43772;-80
2022/08/17 14:12:42;;;;;;;;;;;;;;;;;;5136310;27;47185;-80
2022/08/17 14:15:08;;;;;;;;;;;;;;;;;;5133834;27;43754;-80
2022/08/17 14:17:34;;;;;;;;;;;;;;;;;;5133756;27;45475;-80
2022/08/17 14:20:04;;;;;;;;;;;;;;;;;;5134065;27;43750;-80
2022/08/17 14:22:30;;;;;;;;;;;;;;;;;;5134259;27;46089;-80
2022/08/17 14:24:56;;;;;;;;;;;;;;;;;;5133662;27;46879;-80
2022/08/17 14:27:26;;;;;;;;;;;;;;;;;;5133364;27;44634;-80
2022/08/17 14:29:55;;;;;;;;;;;;;;;;;;5137840;27;34562;-80
2022/08/17 14:32:21;;;;;;;;;;;;;;;;;;5154384;27;47987;-80
2022/08/17 14:34:50;;;;;;;;;;;;;;;;;;5152750;27;45057;-80
2022/08/17 14:37:16;;;;;;;;;;;;;;;;;;5155411;27;44748;-80
2022/08/17 14:39:43;;;;;;;;;;;;;;;;;;5156600;27;46388;-80
2022/08/17 14:42:10;;;;;;;;;;;;;;;;;;5154938;27;47113;-80
2022/08/17 14:44:37;;;;;;;;;;;;;;;;;;5154250;27;45769;-79
2022/08/17 14:47:03;;;;;;;;;;;;;;;;;;5143537;27;45749;-80
2022/08/17 14:49:30;;;;;;;;;;;;;;;;;;5136978;27;45756;-79
2022/08/17 14:51:56;;;;;;;;;;;;;;;;;;5155583;27;46665;-79
2022/08/17 14:54:22;;;;;;;;;;;;;;;;;;5155620;27;44782;-79
2022/08/17 14:56:59;;;;;;;;;;;;;;;;;;5153245;27;46641;-78
2022/08/17 14:59:40;;;;;;;;;;;;;;;;;;5151005;27;47301;-78
2022/08/17 15:02:07;;;;;;;;;;;;;;;;;;5151928;27;44716;-78
2022/08/17 15:04:33;;;;;;;;;;;;;;;;;;5150737;27;47348;-78
2022/08/17 15:06:59;;;;;;;;;;;;;;;;;;5151241;27;44843;-78
2022/08/17 15:09:26;;;;;;;;;;;;;;;;;;5150294;27;47810;-78
2022/08/17 15:11:52;;;;;;;;;;;;;;;;;;5153530;27;47875;-78
2022/08/17 15:14:19;;;;;;;;;;;;;;;;;;5153590;27;43715;-78
2022/08/17 15:16:45;;;;;;;;;;;;;;;;;;5147674;27;48501;-78
2022/08/17 15:19:11;;;;;;;;;;;;;;;;;;5135824;27;46451;-78
2022/08/17 15:21:38;;;;;;;;;;;;;;;;;;5134906;27;43547;-78
2022/08/17 15:24:04;;;;;;;;;;;;;;;;;;5147758;27;45140;-79
2022/08/17 15:26:31;;;;;;;;;;;;;;;;;;5137320;27;42719;-78
2022/08/17 15:28:57;;;;;;;;;;;;;;;;;;5135547;27;45310;-79
2022/08/17 15:31:23;;;;;;;;;;;;;;;;;;5133026;27;48180;-79
2022/08/17 15:33:57;;;;;;;;;;;;;;;;;;5142392;27;44083;-79
2022/08/17 15:36:23;;;;;;;;;;;;;;;;;;5137143;27;47548;-79
2022/08/17 15:38:49;;;;;;;;;;;;;;;;;;5141622;27;45757;-79
2022/08/17 15:41:17;;;;;;;;;;;;;;;;;;5135168;27;44894;-79
2022/08/17 15:43:43;;;;;;;;;;;;;;;;;;5139837;27;44674;-79
2022/08/17 15:46:11;;;;;;;;;;;;;;;;;;5141780;27;46753;-79
2022/08/17 15:48:40;;;;;;;;;;;;;;;;;;5142656;27;45862;-79
2022/08/17 15:51:07;;;;;;;;;;;;;;;;;;5142060;27;45986;-80
2022/08/17 15:53:33;;;;;;;;;;;;;;;;;;5150618;27;41939;-78
2022/08/17 15:55:59;;;;;;;;;;;;;;;;;;5140690;27;43743;-78
2022/08/17 15:58:28;;;;;;;;;;;;;;;;;;5137463;27;46553;-78
2022/08/17 16:00:56;;;;;;;;;;;;;;;;;;5146058;27;44594;-78
2022/08/17 16:03:40;;;;;;;;;;;;;;;;;;5133631;27;46702;-78
2022/08/17 16:06:23;;;;;;;;;;;;;;;;;;5147599;27;48599;-78
2022/08/17 16:08:49;;;;;;;;;;;;;;;;;;5137759;27;43733;-78
2022/08/17 16:11:16;;;;;;;;;;;;;;;;;;5145547;27;49509;-79
2022/08/17 16:13:42;;;;;;;;;;;;;;;;;;5128875;27;44463;-78
2022/08/17 16:16:12;;;;;;;;;;;;;;;;;;5145896;27;46765;-78
2022/08/17 16:18:39;;;;;;;;;;;;;;;;;;5136174;27;48012;-79
2022/08/17 16:21:24;;;;;;;;;;;;;;;;;;5138734;27;43991;-78
2022/08/17 16:23:50;;;;;;;;;;;;;;;;;;5127264;27;46438;-78
2022/08/17 16:26:17;;;;;;;;;;;;;;;;;;5128424;27;46857;-78
2022/08/17 16:28:43;;;;;;;;;;;;;;;;;;5127252;27;41440;-78
2022/08/17 16:31:09;;;;;;;;;;;;;;;;;;5136983;27;47446;-79
2022/08/17 16:33:36;;;;;;;;;;;;;;;;;;5133238;27;45453;-79
2022/08/17 16:36:02;;;;;;;;;;;;;;;;;;5128767;27;46663;-78
2022/08/17 16:38:29;;;;;;;;;;;;;;;;;;5143762;27;48142;-78
2022/08/17 16:40:55;;;;;;;;;;;;;;;;;;5154044;27;43857;-78
2022/08/17 16:43:21;;;;;;;;;;;;;;;;;;5133846;27;47380;-78
2022/08/17 16:45:47;;;;;;;;;;;;;;;;;;5149163;27;45202;-78
2022/08/17 16:48:17;;;;;;;;;;;;;;;;;;5144465;27;45105;-79
2022/08/17 16:50:43;;;;;;;;;;;;;;;;;;5140635;27;46430;-76
2022/08/17 16:53:28;;;;;;;;;;;;;;;;;;5146481;27;42535;-80
2022/08/17 16:55:56;;;;;;;;;;;;;;;;;;5139225;27;47351;-80
2022/08/17 16:58:22;;;;;;;;;;;;;;;;;;5139413;27;48004;-82
2022/08/17 17:00:48;;;;;;;;;;;;;;;;;;5153234;27;41477;-83
2022/08/17 17:03:15;;;;;;;;;;;;;;;;;;5134739;27;45861;-77
2022/08/17 17:05:44;;;;;;;;;;;;;;;;;;5150514;27;47941;-80
2022/08/17 17:08:11;;;;;;;;;;;;;;;;;;5147713;27;44629;-80
2022/08/17 17:10:37;;;;;;;;;;;;;;;;;;5138907;27;46193;-79
2022/08/17 17:13:04;;;;;;;;;;;;;;;;;;5134178;27;45429;-79
2022/08/17 17:15:30;;;;;;;;;;;;;;;;;;5152657;27;43532;-80
2022/08/17 17:17:57;;;;;;;;;;;;;;;;;;5157102;27;46534;-79
2022/08/17 17:20:23;;;;;;;;;;;;;;;;;;5140270;27;42249;-79